sensor_id;sensor_type;location;lat;lon;timestamp;P1;durP1;ratioP1;P2;durP2;ratioP2
51332;SDS011;37417;48.118;11.734;2024-01-11T00:00:50;39.85;;;17.23;;
51332;SDS011;37417;48.118;11.734;2024-01-11T00:03:36;39.00;;;17.02;;
51332;SDS011;37417;48.118;11.734;2024-01-11T00:06:21;45.28;;;17.50;;
51332;SDS011;37417;48.118;11.734;2024-01-11T00:09:07;37.97;;;16.00;;
51332;SDS011;37417;48.118;11.734;2024-01-11T00:11:53;43.10;;;16.92;;
51332;SDS011;37417;48.118;11.734;2024-01-11T00:14:38;43.38;;;17.00;;
51332;SDS011;37417;48.118;11.734;2024-01-11T00:17:24;34.92;;;16.83;;
51332;SDS011;37417;48.118;11.734;2024-01-11T00:20:10;40.97;;;16.15;;
51332;SDS011;37417;48.118;11.734;2024-01-11T00:22:56;43.30;;;17.27;;
51332;SDS011;37417;48.118;11.734;2024-01-11T00:25:44;46.25;;;16.60;;
51332;SDS011;37417;48.118;11.734;2024-01-11T00:28:30;42.67;;;16.25;;
51332;SDS011;37417;48.118;11.734;2024-01-11T00:31:16;49.63;;;17.40;;
51332;SDS011;37417;48.118;11.734;2024-01-11T00:34:02;51.92;;;17.88;;
51332;SDS011;37417;48.118;11.734;2024-01-11T00:36:50;38.45;;;15.55;;
51332;SDS011;37417;48.118;11.734;2024-01-11T00:39:36;34.20;;;14.77;;
51332;SDS011;37417;48.118;11.734;2024-01-11T00:42:22;38.35;;;16.27;;
51332;SDS011;37417;48.118;11.734;2024-01-11T00:45:08;46.65;;;17.05;;
51332;SDS011;37417;48.118;11.734;2024-01-11T00:47:54;35.20;;;14.85;;
51332;SDS011;37417;48.118;11.734;2024-01-11T00:50:39;27.05;;;13.93;;
51332;SDS011;37417;48.118;11.734;2024-01-11T00:53:26;38.45;;;14.60;;
51332;SDS011;37417;48.118;11.734;2024-01-11T00:56:16;36.47;;;14.27;;
51332;SDS011;37417;48.118;11.734;2024-01-11T00:59:03;35.55;;;14.23;;
51332;SDS011;37417;48.118;11.734;2024-01-11T01:01:51;28.05;;;13.88;;
51332;SDS011;37417;48.118;11.734;2024-01-11T01:04:42;27.40;;;12.05;;
51332;SDS011;37417;48.118;11.734;2024-01-11T01:07:28;29.58;;;13.27;;
51332;SDS011;37417;48.118;11.734;2024-01-11T01:10:14;19.25;;;8.05;;
51332;SDS011;37417;48.118;11.734;2024-01-11T01:12:59;43.55;;;17.20;;
51332;SDS011;37417;48.118;11.734;2024-01-11T01:15:45;17.48;;;7.35;;
51332;SDS011;37417;48.118;11.734;2024-01-11T01:18:33;13.18;;;6.53;;
51332;SDS011;37417;48.118;11.734;2024-01-11T01:21:19;39.75;;;16.60;;
51332;SDS011;37417;48.118;11.734;2024-01-11T01:24:05;40.50;;;16.38;;
51332;SDS011;37417;48.118;11.734;2024-01-11T01:26:53;26.70;;;11.68;;
51332;SDS011;37417;48.118;11.734;2024-01-11T01:29:42;42.20;;;16.95;;
51332;SDS011;37417;48.118;11.734;2024-01-11T01:32:28;32.88;;;14.63;;
51332;SDS011;37417;48.118;11.734;2024-01-11T01:35:22;32.17;;;14.90;;
51332;SDS011;37417;48.118;11.734;2024-01-11T01:38:08;40.22;;;13.70;;
51332;SDS011;37417;48.118;11.734;2024-01-11T01:40:57;28.77;;;11.40;;
51332;SDS011;37417;48.118;11.734;2024-01-11T01:43:49;37.38;;;14.75;;
51332;SDS011;37417;48.118;11.734;2024-01-11T01:46:36;34.88;;;13.25;;
51332;SDS011;37417;48.118;11.734;2024-01-11T01:49:24;26.27;;;11.00;;
51332;SDS011;37417;48.118;11.734;2024-01-11T01:52:11;43.38;;;14.90;;
51332;SDS011;37417;48.118;11.734;2024-01-11T01:55:00;23.67;;;12.18;;
51332;SDS011;37417;48.118;11.734;2024-01-11T01:57:47;33.47;;;13.25;;
51332;SDS011;37417;48.118;11.734;2024-01-11T02:00:36;24.45;;;9.93;;
51332;SDS011;37417;48.118;11.734;2024-01-11T02:03:29;31.48;;;13.18;;
51332;SDS011;37417;48.118;11.734;2024-01-11T02:06:21;34.55;;;14.25;;
51332;SDS011;37417;48.118;11.734;2024-01-11T02:09:07;26.80;;;10.68;;
51332;SDS011;37417;48.118;11.734;2024-01-11T02:11:57;36.92;;;13.10;;
51332;SDS011;37417;48.118;11.734;2024-01-11T02:14:49;27.45;;;12.80;;
51332;SDS011;37417;48.118;11.734;2024-01-11T02:17:39;39.50;;;14.85;;
51332;SDS011;37417;48.118;11.734;2024-01-11T02:20:28;34.92;;;13.63;;
51332;SDS011;37417;48.118;11.734;2024-01-11T02:23:24;32.38;;;13.57;;
51332;SDS011;37417;48.118;11.734;2024-01-11T02:26:13;35.72;;;13.38;;
51332;SDS011;37417;48.118;11.734;2024-01-11T02:29:11;24.95;;;9.73;;
51332;SDS011;37417;48.118;11.734;2024-01-11T02:32:00;19.88;;;10.93;;
51332;SDS011;37417;48.118;11.734;2024-01-11T02:34:50;37.40;;;14.55;;
51332;SDS011;37417;48.118;11.734;2024-01-11T02:37:38;31.05;;;13.50;;
51332;SDS011;37417;48.118;11.734;2024-01-11T02:40:29;33.47;;;13.38;;
51332;SDS011;37417;48.118;11.734;2024-01-11T02:43:17;29.85;;;11.40;;
51332;SDS011;37417;48.118;11.734;2024-01-11T02:46:03;26.58;;;11.25;;
51332;SDS011;37417;48.118;11.734;2024-01-11T02:48:49;23.35;;;10.57;;
51332;SDS011;37417;48.118;11.734;2024-01-11T02:51:35;34.45;;;14.45;;
51332;SDS011;37417;48.118;11.734;2024-01-11T02:54:22;27.58;;;12.52;;
51332;SDS011;37417;48.118;11.734;2024-01-11T02:57:07;33.25;;;13.70;;
51332;SDS011;37417;48.118;11.734;2024-01-11T02:59:56;31.58;;;13.02;;
51332;SDS011;37417;48.118;11.734;2024-01-11T03:02:42;29.85;;;13.18;;
51332;SDS011;37417;48.118;11.734;2024-01-11T03:05:28;28.95;;;13.50;;
51332;SDS011;37417;48.118;11.734;2024-01-11T03:08:14;33.55;;;13.95;;
51332;SDS011;37417;48.118;11.734;2024-01-11T03:11:05;39.45;;;14.73;;
51332;SDS011;37417;48.118;11.734;2024-01-11T03:13:51;27.05;;;12.73;;
51332;SDS011;37417;48.118;11.734;2024-01-11T03:16:37;31.63;;;12.82;;
51332;SDS011;37417;48.118;11.734;2024-01-11T03:19:25;36.60;;;11.43;;
51332;SDS011;37417;48.118;11.734;2024-01-11T03:22:11;29.05;;;13.98;;
51332;SDS011;37417;48.118;11.734;2024-01-11T03:25:02;32.58;;;13.60;;
51332;SDS011;37417;48.118;11.734;2024-01-11T03:27:48;36.42;;;13.23;;
51332;SDS011;37417;48.118;11.734;2024-01-11T03:30:34;33.67;;;15.40;;
51332;SDS011;37417;48.118;11.734;2024-01-11T03:33:21;33.15;;;14.05;;
51332;SDS011;37417;48.118;11.734;2024-01-11T03:36:09;38.05;;;13.85;;
51332;SDS011;37417;48.118;11.734;2024-01-11T03:39:01;36.03;;;13.93;;
51332;SDS011;37417;48.118;11.734;2024-01-11T03:41:49;29.83;;;13.70;;
51332;SDS011;37417;48.118;11.734;2024-01-11T03:44:39;31.77;;;10.60;;
51332;SDS011;37417;48.118;11.734;2024-01-11T03:47:24;37.08;;;13.48;;
51332;SDS011;37417;48.118;11.734;2024-01-11T03:50:10;28.33;;;12.57;;
51332;SDS011;37417;48.118;11.734;2024-01-11T03:52:56;33.83;;;14.88;;
51332;SDS011;37417;48.118;11.734;2024-01-11T03:55:42;33.95;;;13.55;;
51332;SDS011;37417;48.118;11.734;2024-01-11T03:58:30;30.13;;;12.05;;
51332;SDS011;37417;48.118;11.734;2024-01-11T04:01:19;11.65;;;4.60;;
51332;SDS011;37417;48.118;11.734;2024-01-11T04:04:06;33.40;;;12.65;;
51332;SDS011;37417;48.118;11.734;2024-01-11T04:06:51;18.25;;;8.02;;
51332;SDS011;37417;48.118;11.734;2024-01-11T04:09:46;30.83;;;13.13;;
51332;SDS011;37417;48.118;11.734;2024-01-11T04:12:37;31.00;;;15.60;;
51332;SDS011;37417;48.118;11.734;2024-01-11T04:15:23;25.17;;;13.52;;
51332;SDS011;37417;48.118;11.734;2024-01-11T04:18:09;28.20;;;13.25;;
51332;SDS011;37417;48.118;11.734;2024-01-11T04:20:54;24.50;;;10.00;;
51332;SDS011;37417;48.118;11.734;2024-01-11T04:23:40;36.80;;;14.82;;
51332;SDS011;37417;48.118;11.734;2024-01-11T04:26:28;41.80;;;13.68;;
51332;SDS011;37417;48.118;11.734;2024-01-11T04:29:14;30.45;;;13.52;;
51332;SDS011;37417;48.118;11.734;2024-01-11T04:32:00;40.85;;;13.93;;
51332;SDS011;37417;48.118;11.734;2024-01-11T04:34:49;36.88;;;15.40;;
51332;SDS011;37417;48.118;11.734;2024-01-11T04:37:38;40.08;;;13.63;;
51332;SDS011;37417;48.118;11.734;2024-01-11T04:40:24;38.17;;;14.38;;
51332;SDS011;37417;48.118;11.734;2024-01-11T04:43:10;38.20;;;13.25;;
51332;SDS011;37417;48.118;11.734;2024-01-11T04:45:56;38.45;;;14.15;;
51332;SDS011;37417;48.118;11.734;2024-01-11T04:48:45;33.90;;;14.30;;
51332;SDS011;37417;48.118;11.734;2024-01-11T04:51:38;35.58;;;14.23;;
51332;SDS011;37417;48.118;11.734;2024-01-11T04:54:24;31.88;;;12.63;;
51332;SDS011;37417;48.118;11.734;2024-01-11T04:57:10;32.53;;;13.57;;
51332;SDS011;37417;48.118;11.734;2024-01-11T04:59:58;24.73;;;12.35;;
51332;SDS011;37417;48.118;11.734;2024-01-11T05:02:44;34.75;;;13.65;;
51332;SDS011;37417;48.118;11.734;2024-01-11T05:05:30;18.00;;;11.00;;
51332;SDS011;37417;48.118;11.734;2024-01-11T05:08:16;39.85;;;14.93;;
51332;SDS011;37417;48.118;11.734;2024-01-11T05:11:05;41.03;;;15.27;;
51332;SDS011;37417;48.118;11.734;2024-01-11T05:13:53;37.97;;;13.05;;
51332;SDS011;37417;48.118;11.734;2024-01-11T05:16:50;34.35;;;13.32;;
51332;SDS011;37417;48.118;11.734;2024-01-11T05:19:38;31.02;;;13.23;;
51332;SDS011;37417;48.118;11.734;2024-01-11T05:22:25;31.15;;;11.80;;
51332;SDS011;37417;48.118;11.734;2024-01-11T05:25:14;28.13;;;12.85;;
51332;SDS011;37417;48.118;11.734;2024-01-11T05:28:00;19.92;;;10.02;;
51332;SDS011;37417;48.118;11.734;2024-01-11T05:30:49;23.90;;;10.90;;
51332;SDS011;37417;48.118;11.734;2024-01-11T05:33:44;37.08;;;12.98;;
51332;SDS011;37417;48.118;11.734;2024-01-11T05:36:35;21.30;;;10.65;;
51332;SDS011;37417;48.118;11.734;2024-01-11T05:39:21;24.25;;;11.15;;
51332;SDS011;37417;48.118;11.734;2024-01-11T05:42:07;26.58;;;12.18;;
51332;SDS011;37417;48.118;11.734;2024-01-11T05:44:53;24.70;;;12.48;;
51332;SDS011;37417;48.118;11.734;2024-01-11T05:47:40;25.13;;;10.35;;
51332;SDS011;37417;48.118;11.734;2024-01-11T05:50:37;30.63;;;12.43;;
51332;SDS011;37417;48.118;11.734;2024-01-11T05:53:28;24.45;;;9.55;;
51332;SDS011;37417;48.118;11.734;2024-01-11T05:56:14;23.52;;;11.20;;
51332;SDS011;37417;48.118;11.734;2024-01-11T05:59:00;22.77;;;10.77;;
51332;SDS011;37417;48.118;11.734;2024-01-11T06:01:46;16.10;;;8.43;;
51332;SDS011;37417;48.118;11.734;2024-01-11T06:04:32;26.60;;;12.68;;
51332;SDS011;37417;48.118;11.734;2024-01-11T06:07:27;27.48;;;12.10;;
51332;SDS011;37417;48.118;11.734;2024-01-11T06:10:19;26.42;;;11.90;;
51332;SDS011;37417;48.118;11.734;2024-01-11T06:13:05;21.42;;;11.05;;
51332;SDS011;37417;48.118;11.734;2024-01-11T06:15:54;22.15;;;10.20;;
51332;SDS011;37417;48.118;11.734;2024-01-11T06:18:40;21.25;;;9.13;;
51332;SDS011;37417;48.118;11.734;2024-01-11T06:21:28;30.17;;;12.75;;
51332;SDS011;37417;48.118;11.734;2024-01-11T06:24:17;24.55;;;11.68;;
51332;SDS011;37417;48.118;11.734;2024-01-11T06:27:02;24.88;;;11.00;;
51332;SDS011;37417;48.118;11.734;2024-01-11T06:29:48;23.10;;;9.93;;
51332;SDS011;37417;48.118;11.734;2024-01-11T06:32:34;24.73;;;9.60;;
51332;SDS011;37417;48.118;11.734;2024-01-11T06:35:19;23.08;;;9.82;;
51332;SDS011;37417;48.118;11.734;2024-01-11T06:38:05;17.77;;;10.25;;
51332;SDS011;37417;48.118;11.734;2024-01-11T06:40:50;22.35;;;9.75;;
51332;SDS011;37417;48.118;11.734;2024-01-11T06:43:36;27.10;;;9.98;;
51332;SDS011;37417;48.118;11.734;2024-01-11T06:46:21;23.50;;;11.57;;
51332;SDS011;37417;48.118;11.734;2024-01-11T06:49:07;19.08;;;10.27;;
51332;SDS011;37417;48.118;11.734;2024-01-11T06:51:53;20.88;;;11.35;;
51332;SDS011;37417;48.118;11.734;2024-01-11T06:54:39;16.95;;;8.68;;
51332;SDS011;37417;48.118;11.734;2024-01-11T06:57:25;12.60;;;7.47;;
51332;SDS011;37417;48.118;11.734;2024-01-11T07:00:11;17.10;;;9.60;;
51332;SDS011;37417;48.118;11.734;2024-01-11T07:02:56;19.23;;;10.15;;
51332;SDS011;37417;48.118;11.734;2024-01-11T07:05:42;16.67;;;8.48;;
51332;SDS011;37417;48.118;11.734;2024-01-11T07:08:27;21.70;;;10.20;;
51332;SDS011;37417;48.118;11.734;2024-01-11T07:11:13;18.15;;;9.90;;
51332;SDS011;37417;48.118;11.734;2024-01-11T07:13:59;23.88;;;10.70;;
51332;SDS011;37417;48.118;11.734;2024-01-11T07:16:44;25.63;;;11.55;;
51332;SDS011;37417;48.118;11.734;2024-01-11T07:19:30;26.65;;;11.85;;
51332;SDS011;37417;48.118;11.734;2024-01-11T07:22:15;17.67;;;8.95;;
51332;SDS011;37417;48.118;11.734;2024-01-11T07:25:01;16.35;;;9.20;;
51332;SDS011;37417;48.118;11.734;2024-01-11T07:27:46;20.10;;;12.50;;
51332;SDS011;37417;48.118;11.734;2024-01-11T07:30:32;29.70;;;10.63;;
51332;SDS011;37417;48.118;11.734;2024-01-11T07:33:18;15.45;;;7.53;;
51332;SDS011;37417;48.118;11.734;2024-01-11T07:36:03;22.48;;;10.30;;
51332;SDS011;37417;48.118;11.734;2024-01-11T07:38:50;8.82;;;3.08;;
51332;SDS011;37417;48.118;11.734;2024-01-11T07:41:36;12.73;;;6.50;;
51332;SDS011;37417;48.118;11.734;2024-01-11T07:44:22;26.33;;;12.85;;
51332;SDS011;37417;48.118;11.734;2024-01-11T07:47:07;8.82;;;6.53;;
51332;SDS011;37417;48.118;11.734;2024-01-11T07:49:53;25.13;;;11.95;;
51332;SDS011;37417;48.118;11.734;2024-01-11T07:52:38;23.73;;;11.02;;
51332;SDS011;37417;48.118;11.734;2024-01-11T07:55:25;26.58;;;12.75;;
51332;SDS011;37417;48.118;11.734;2024-01-11T07:58:11;16.73;;;7.97;;
51332;SDS011;37417;48.118;11.734;2024-01-11T08:00:58;22.27;;;10.25;;
51332;SDS011;37417;48.118;11.734;2024-01-11T08:03:43;19.20;;;10.00;;
51332;SDS011;37417;48.118;11.734;2024-01-11T08:06:30;27.17;;;11.93;;
51332;SDS011;37417;48.118;11.734;2024-01-11T08:09:16;23.48;;;9.95;;
51332;SDS011;37417;48.118;11.734;2024-01-11T08:12:01;26.80;;;11.32;;
51332;SDS011;37417;48.118;11.734;2024-01-11T08:14:47;17.20;;;8.25;;
51332;SDS011;37417;48.118;11.734;2024-01-11T08:17:33;32.95;;;7.18;;
51332;SDS011;37417;48.118;11.734;2024-01-11T08:20:18;20.85;;;9.88;;
51332;SDS011;37417;48.118;11.734;2024-01-11T08:23:04;18.92;;;9.15;;
51332;SDS011;37417;48.118;11.734;2024-01-11T08:25:50;32.80;;;11.73;;
51332;SDS011;37417;48.118;11.734;2024-01-11T08:28:38;42.13;;;14.95;;
51332;SDS011;37417;48.118;11.734;2024-01-11T08:31:23;39.35;;;15.65;;
51332;SDS011;37417;48.118;11.734;2024-01-11T08:34:09;35.53;;;11.85;;
51332;SDS011;37417;48.118;11.734;2024-01-11T08:36:55;33.38;;;15.13;;
51332;SDS011;37417;48.118;11.734;2024-01-11T08:39:41;25.25;;;10.55;;
51332;SDS011;37417;48.118;11.734;2024-01-11T08:42:26;29.98;;;13.85;;
51332;SDS011;37417;48.118;11.734;2024-01-11T08:45:12;33.90;;;13.93;;
51332;SDS011;37417;48.118;11.734;2024-01-11T08:48:03;29.60;;;12.68;;
51332;SDS011;37417;48.118;11.734;2024-01-11T08:50:48;33.50;;;11.95;;
51332;SDS011;37417;48.118;11.734;2024-01-11T08:53:34;38.60;;;12.73;;
51332;SDS011;37417;48.118;11.734;2024-01-11T08:56:20;40.30;;;15.75;;
51332;SDS011;37417;48.118;11.734;2024-01-11T08:59:05;32.40;;;11.15;;
51332;SDS011;37417;48.118;11.734;2024-01-11T09:01:51;35.78;;;12.85;;
51332;SDS011;37417;48.118;11.734;2024-01-11T09:04:37;34.20;;;12.70;;
51332;SDS011;37417;48.118;11.734;2024-01-11T09:07:22;28.17;;;11.80;;
51332;SDS011;37417;48.118;11.734;2024-01-11T09:10:08;31.63;;;12.65;;
51332;SDS011;37417;48.118;11.734;2024-01-11T09:12:54;30.38;;;12.75;;
51332;SDS011;37417;48.118;11.734;2024-01-11T09:15:40;32.47;;;13.35;;
51332;SDS011;37417;48.118;11.734;2024-01-11T09:18:25;25.08;;;11.75;;
51332;SDS011;37417;48.118;11.734;2024-01-11T09:21:11;34.22;;;12.50;;
51332;SDS011;37417;48.118;11.734;2024-01-11T09:23:57;26.75;;;11.18;;
51332;SDS011;37417;48.118;11.734;2024-01-11T09:26:43;29.42;;;12.15;;
51332;SDS011;37417;48.118;11.734;2024-01-11T09:29:28;30.98;;;12.73;;
51332;SDS011;37417;48.118;11.734;2024-01-11T09:32:14;31.85;;;13.02;;
51332;SDS011;37417;48.118;11.734;2024-01-11T09:35:00;31.25;;;12.75;;
51332;SDS011;37417;48.118;11.734;2024-01-11T09:37:45;32.28;;;12.82;;
51332;SDS011;37417;48.118;11.734;2024-01-11T09:40:31;32.05;;;12.88;;
51332;SDS011;37417;48.118;11.734;2024-01-11T09:43:17;31.73;;;14.13;;
51332;SDS011;37417;48.118;11.734;2024-01-11T09:46:03;34.08;;;12.48;;
51332;SDS011;37417;48.118;11.734;2024-01-11T09:48:48;47.30;;;15.38;;
51332;SDS011;37417;48.118;11.734;2024-01-11T09:51:34;33.92;;;13.40;;
51332;SDS011;37417;48.118;11.734;2024-01-11T09:54:23;35.13;;;13.80;;
51332;SDS011;37417;48.118;11.734;2024-01-11T09:57:09;36.58;;;14.13;;
51332;SDS011;37417;48.118;11.734;2024-01-11T09:59:55;27.15;;;13.70;;
51332;SDS011;37417;48.118;11.734;2024-01-11T10:02:41;31.20;;;12.50;;
51332;SDS011;37417;48.118;11.734;2024-01-11T10:05:27;31.58;;;11.65;;
51332;SDS011;37417;48.118;11.734;2024-01-11T10:08:14;28.58;;;12.18;;
51332;SDS011;37417;48.118;11.734;2024-01-11T10:11:00;28.55;;;12.32;;
51332;SDS011;37417;48.118;11.734;2024-01-11T10:13:46;30.77;;;11.90;;
51332;SDS011;37417;48.118;11.734;2024-01-11T10:16:32;36.58;;;13.60;;
51332;SDS011;37417;48.118;11.734;2024-01-11T10:19:17;30.50;;;14.27;;
51332;SDS011;37417;48.118;11.734;2024-01-11T10:22:04;31.77;;;12.77;;
51332;SDS011;37417;48.118;11.734;2024-01-11T10:24:50;20.67;;;10.15;;
51332;SDS011;37417;48.118;11.734;2024-01-11T10:27:35;30.52;;;13.35;;
51332;SDS011;37417;48.118;11.734;2024-01-11T10:30:21;39.72;;;14.38;;
51332;SDS011;37417;48.118;11.734;2024-01-11T10:33:08;35.85;;;13.45;;
51332;SDS011;37417;48.118;11.734;2024-01-11T10:35:54;33.05;;;12.18;;
51332;SDS011;37417;48.118;11.734;2024-01-11T10:38:39;33.35;;;12.65;;
51332;SDS011;37417;48.118;11.734;2024-01-11T10:41:25;38.70;;;14.32;;
51332;SDS011;37417;48.118;11.734;2024-01-11T10:44:21;28.15;;;11.40;;
51332;SDS011;37417;48.118;11.734;2024-01-11T10:47:07;28.90;;;13.27;;
51332;SDS011;37417;48.118;11.734;2024-01-11T10:49:54;29.60;;;10.55;;
51332;SDS011;37417;48.118;11.734;2024-01-11T10:52:42;26.50;;;11.82;;
51332;SDS011;37417;48.118;11.734;2024-01-11T10:55:33;33.85;;;11.40;;
51332;SDS011;37417;48.118;11.734;2024-01-11T10:58:19;32.85;;;11.38;;
51332;SDS011;37417;48.118;11.734;2024-01-11T11:01:06;34.92;;;15.07;;
51332;SDS011;37417;48.118;11.734;2024-01-11T11:03:52;35.08;;;13.60;;
51332;SDS011;37417;48.118;11.734;2024-01-11T11:06:38;37.10;;;11.90;;
51332;SDS011;37417;48.118;11.734;2024-01-11T11:09:24;28.42;;;12.77;;
51332;SDS011;37417;48.118;11.734;2024-01-11T11:12:10;35.85;;;12.23;;
51332;SDS011;37417;48.118;11.734;2024-01-11T11:14:56;35.85;;;13.10;;
51332;SDS011;37417;48.118;11.734;2024-01-11T11:17:42;36.50;;;14.50;;
51332;SDS011;37417;48.118;11.734;2024-01-11T11:20:29;35.33;;;12.82;;
51332;SDS011;37417;48.118;11.734;2024-01-11T11:23:16;29.17;;;14.07;;
51332;SDS011;37417;48.118;11.734;2024-01-11T11:26:05;36.97;;;13.38;;
51332;SDS011;37417;48.118;11.734;2024-01-11T11:28:52;39.58;;;14.77;;
51332;SDS011;37417;48.118;11.734;2024-01-11T11:31:46;40.35;;;13.95;;
51332;SDS011;37417;48.118;11.734;2024-01-11T11:34:44;37.72;;;14.60;;
51332;SDS011;37417;48.118;11.734;2024-01-11T11:37:30;32.75;;;12.70;;
51332;SDS011;37417;48.118;11.734;2024-01-11T11:40:17;40.90;;;13.68;;
51332;SDS011;37417;48.118;11.734;2024-01-11T11:43:04;37.72;;;13.80;;
51332;SDS011;37417;48.118;11.734;2024-01-11T11:45:52;36.42;;;13.57;;
51332;SDS011;37417;48.118;11.734;2024-01-11T11:51:27;39.58;;;16.42;;
51332;SDS011;37417;48.118;11.734;2024-01-11T11:54:13;37.35;;;15.10;;
51332;SDS011;37417;48.118;11.734;2024-01-11T11:57:00;35.92;;;14.88;;
51332;SDS011;37417;48.118;11.734;2024-01-11T11:59:45;41.63;;;17.60;;
51332;SDS011;37417;48.118;11.734;2024-01-11T12:02:31;41.40;;;15.68;;
51332;SDS011;37417;48.118;11.734;2024-01-11T12:05:17;36.38;;;15.27;;
51332;SDS011;37417;48.118;11.734;2024-01-11T12:08:04;38.05;;;14.55;;
51332;SDS011;37417;48.118;11.734;2024-01-11T12:10:49;30.17;;;14.55;;
51332;SDS011;37417;48.118;11.734;2024-01-11T12:13:37;33.83;;;15.27;;
51332;SDS011;37417;48.118;11.734;2024-01-11T12:16:22;37.30;;;14.50;;
51332;SDS011;37417;48.118;11.734;2024-01-11T12:19:08;47.40;;;15.45;;
51332;SDS011;37417;48.118;11.734;2024-01-11T12:21:54;37.30;;;15.40;;
51332;SDS011;37417;48.118;11.734;2024-01-11T12:24:40;41.22;;;16.88;;
51332;SDS011;37417;48.118;11.734;2024-01-11T12:27:27;39.63;;;16.85;;
51332;SDS011;37417;48.118;11.734;2024-01-11T12:30:13;45.40;;;16.77;;
51332;SDS011;37417;48.118;11.734;2024-01-11T12:33:02;41.65;;;18.15;;
51332;SDS011;37417;48.118;11.734;2024-01-11T12:35:48;45.28;;;17.17;;
51332;SDS011;37417;48.118;11.734;2024-01-11T12:38:33;43.53;;;16.23;;
51332;SDS011;37417;48.118;11.734;2024-01-11T12:41:20;47.78;;;16.63;;
51332;SDS011;37417;48.118;11.734;2024-01-11T12:44:06;55.33;;;18.25;;
51332;SDS011;37417;48.118;11.734;2024-01-11T12:46:52;47.10;;;16.50;;
51332;SDS011;37417;48.118;11.734;2024-01-11T12:49:41;48.95;;;18.52;;
51332;SDS011;37417;48.118;11.734;2024-01-11T12:52:28;51.25;;;18.65;;
51332;SDS011;37417;48.118;11.734;2024-01-11T12:55:18;42.75;;;14.27;;
51332;SDS011;37417;48.118;11.734;2024-01-11T12:58:05;48.85;;;16.73;;
51332;SDS011;37417;48.118;11.734;2024-01-11T13:00:50;28.50;;;13.57;;
51332;SDS011;37417;48.118;11.734;2024-01-11T13:03:38;39.95;;;15.10;;
51332;SDS011;37417;48.118;11.734;2024-01-11T13:06:24;37.70;;;15.50;;
51332;SDS011;37417;48.118;11.734;2024-01-11T13:09:11;41.17;;;15.30;;
51332;SDS011;37417;48.118;11.734;2024-01-11T13:11:57;44.42;;;16.95;;
51332;SDS011;37417;48.118;11.734;2024-01-11T13:14:43;37.83;;;17.27;;
51332;SDS011;37417;48.118;11.734;2024-01-11T13:17:28;42.30;;;15.55;;
51332;SDS011;37417;48.118;11.734;2024-01-11T13:20:14;37.47;;;14.77;;
51332;SDS011;37417;48.118;11.734;2024-01-11T13:23:16;40.40;;;14.55;;
51332;SDS011;37417;48.118;11.734;2024-01-11T13:26:03;38.88;;;14.48;;
51332;SDS011;37417;48.118;11.734;2024-01-11T13:28:49;41.45;;;15.32;;
51332;SDS011;37417;48.118;11.734;2024-01-11T13:31:37;43.90;;;17.90;;
51332;SDS011;37417;48.118;11.734;2024-01-11T13:34:23;42.70;;;16.05;;
51332;SDS011;37417;48.118;11.734;2024-01-11T13:37:08;42.20;;;15.90;;
51332;SDS011;37417;48.118;11.734;2024-01-11T13:39:54;39.45;;;15.48;;
51332;SDS011;37417;48.118;11.734;2024-01-11T13:42:40;42.30;;;16.65;;
51332;SDS011;37417;48.118;11.734;2024-01-11T13:45:25;47.05;;;16.85;;
51332;SDS011;37417;48.118;11.734;2024-01-11T13:48:11;41.78;;;15.75;;
51332;SDS011;37417;48.118;11.734;2024-01-11T13:50:57;45.85;;;18.50;;
51332;SDS011;37417;48.118;11.734;2024-01-11T13:53:43;39.20;;;16.23;;
51332;SDS011;37417;48.118;11.734;2024-01-11T13:56:28;44.63;;;15.02;;
51332;SDS011;37417;48.118;11.734;2024-01-11T13:59:14;42.30;;;16.35;;
51332;SDS011;37417;48.118;11.734;2024-01-11T14:02:00;42.25;;;15.85;;
51332;SDS011;37417;48.118;11.734;2024-01-11T14:04:45;45.97;;;16.27;;
51332;SDS011;37417;48.118;11.734;2024-01-11T14:07:31;39.45;;;17.58;;
51332;SDS011;37417;48.118;11.734;2024-01-11T14:10:16;42.75;;;17.30;;
51332;SDS011;37417;48.118;11.734;2024-01-11T14:13:06;43.35;;;21.10;;
51332;SDS011;37417;48.118;11.734;2024-01-11T14:15:52;45.88;;;16.52;;
51332;SDS011;37417;48.118;11.734;2024-01-11T14:18:39;50.22;;;19.50;;
51332;SDS011;37417;48.118;11.734;2024-01-11T14:21:25;59.33;;;20.80;;
51332;SDS011;37417;48.118;11.734;2024-01-11T14:24:10;52.50;;;21.23;;
51332;SDS011;37417;48.118;11.734;2024-01-11T14:26:56;53.17;;;19.70;;
51332;SDS011;37417;48.118;11.734;2024-01-11T14:29:41;45.25;;;20.02;;
51332;SDS011;37417;48.118;11.734;2024-01-11T14:32:27;50.75;;;19.02;;
51332;SDS011;37417;48.118;11.734;2024-01-11T14:35:13;46.72;;;18.77;;
51332;SDS011;37417;48.118;11.734;2024-01-11T14:37:58;50.45;;;18.60;;
51332;SDS011;37417;48.118;11.734;2024-01-11T14:40:44;43.58;;;19.02;;
51332;SDS011;37417;48.118;11.734;2024-01-11T14:43:30;53.65;;;20.75;;
51332;SDS011;37417;48.118;11.734;2024-01-11T14:46:16;55.22;;;19.48;;
51332;SDS011;37417;48.118;11.734;2024-01-11T14:49:02;50.85;;;19.05;;
51332;SDS011;37417;48.118;11.734;2024-01-11T14:51:49;60.10;;;23.75;;
51332;SDS011;37417;48.118;11.734;2024-01-11T14:54:35;53.65;;;23.35;;
51332;SDS011;37417;48.118;11.734;2024-01-11T14:57:20;50.88;;;18.55;;
51332;SDS011;37417;48.118;11.734;2024-01-11T15:00:06;50.60;;;19.23;;
51332;SDS011;37417;48.118;11.734;2024-01-11T15:02:55;63.78;;;24.77;;
51332;SDS011;37417;48.118;11.734;2024-01-11T15:05:41;51.13;;;19.92;;
51332;SDS011;37417;48.118;11.734;2024-01-11T15:08:26;61.28;;;19.92;;
51332;SDS011;37417;48.118;11.734;2024-01-11T15:11:12;55.33;;;21.77;;
51332;SDS011;37417;48.118;11.734;2024-01-11T15:13:57;56.40;;;21.48;;
51332;SDS011;37417;48.118;11.734;2024-01-11T15:16:43;52.25;;;19.40;;
51332;SDS011;37417;48.118;11.734;2024-01-11T15:19:31;54.63;;;20.95;;
51332;SDS011;37417;48.118;11.734;2024-01-11T15:22:16;62.42;;;23.40;;
51332;SDS011;37417;48.118;11.734;2024-01-11T15:25:02;59.88;;;23.42;;
51332;SDS011;37417;48.118;11.734;2024-01-11T15:27:48;58.92;;;20.05;;
51332;SDS011;37417;48.118;11.734;2024-01-11T15:30:33;60.08;;;21.45;;
51332;SDS011;37417;48.118;11.734;2024-01-11T15:33:19;61.60;;;22.63;;
51332;SDS011;37417;48.118;11.734;2024-01-11T15:36:05;53.55;;;21.30;;
51332;SDS011;37417;48.118;11.734;2024-01-11T15:38:51;60.17;;;21.08;;
51332;SDS011;37417;48.118;11.734;2024-01-11T15:41:36;53.20;;;20.33;;
51332;SDS011;37417;48.118;11.734;2024-01-11T15:44:22;49.65;;;21.35;;
51332;SDS011;37417;48.118;11.734;2024-01-11T15:47:07;56.10;;;22.27;;
51332;SDS011;37417;48.118;11.734;2024-01-11T15:49:55;45.80;;;20.15;;
51332;SDS011;37417;48.118;11.734;2024-01-11T15:52:41;51.63;;;21.05;;
51332;SDS011;37417;48.118;11.734;2024-01-11T15:55:27;65.80;;;24.58;;
51332;SDS011;37417;48.118;11.734;2024-01-11T15:58:12;63.72;;;21.23;;
51332;SDS011;37417;48.118;11.734;2024-01-11T16:00:58;68.22;;;24.15;;
51332;SDS011;37417;48.118;11.734;2024-01-11T16:03:43;49.38;;;23.73;;
51332;SDS011;37417;48.118;11.734;2024-01-11T16:06:31;58.17;;;21.77;;